sensor_id;sensor_type;location;lat;lon;timestamp;pressure;altitude;pressure_sealevel;temperature;humidity
7918;BME280;4004;42.624;23.386;2022-09-12T00:01:02;93947.94;;;15.82;100.00
7918;BME280;4004;42.624;23.386;2022-09-12T00:03:29;93951.84;;;15.73;100.00
7918;BME280;4004;42.624;23.386;2022-09-12T00:05:56;93952.97;;;15.76;100.00
7918;BME280;4004;42.624;23.386;2022-09-12T00:08:22;93962.28;;;15.79;100.00
7918;BME280;4004;42.624;23.386;2022-09-12T00:10:49;93963.06;;;15.68;100.00
7918;BME280;4004;42.624;23.386;2022-09-12T00:13:17;93963.47;;;15.74;100.00
7918;BME280;4004;42.624;23.386;2022-09-12T00:15:44;93964.63;;;15.77;100.00
7918;BME280;4004;42.624;23.386;2022-09-12T00:18:13;93967.72;;;15.68;100.00
7918;BME280;4004;42.624;23.386;2022-09-12T00:20:41;93968.09;;;15.63;100.00
7918;BME280;4004;42.624;23.386;2022-09-12T00:23:08;93974.69;;;15.58;100.00
7918;BME280;4004;42.624;23.386;2022-09-12T00:25:40;93966.59;;;15.47;100.00
7918;BME280;4004;42.624;23.386;2022-09-12T00:28:07;93968.50;;;15.47;100.00
7918;BME280;4004;42.624;23.386;2022-09-12T00:30:39;93970.09;;;15.41;100.00
7918;BME280;4004;42.624;23.386;2022-09-12T00:33:06;93977.03;;;15.38;100.00
7918;BME280;4004;42.624;23.386;2022-09-12T00:35:32;93977.44;;;15.44;100.00
7918;BME280;4004;42.624;23.386;2022-09-12T00:37:59;93952.28;;;15.40;100.00
7918;BME280;4004;42.624;23.386;2022-09-12T00:40:26;93962.34;;;15.36;100.00
7918;BME280;4004;42.624;23.386;2022-09-12T00:42:53;93975.50;;;15.37;100.00
7918;BME280;4004;42.624;23.386;2022-09-12T00:45:23;93964.66;;;15.37;100.00
7918;BME280;4004;42.624;23.386;2022-09-12T00:47:56;93969.69;;;15.42;100.00
7918;BME280;4004;42.624;23.386;2022-09-12T00:50:24;93968.16;;;15.38;100.00
7918;BME280;4004;42.624;23.386;2022-09-12T00:52:54;93973.19;;;15.39;100.00
7918;BME280;4004;42.624;23.386;2022-09-12T00:55:24;93973.94;;;15.50;100.00
7918;BME280;4004;42.624;23.386;2022-09-12T00:57:55;93970.47;;;15.50;100.00
7918;BME280;4004;42.624;23.386;2022-09-12T01:00:24;93970.81;;;15.55;100.00
7918;BME280;4004;42.624;23.386;2022-09-12T01:02:55;93968.13;;;15.55;100.00
7918;BME280;4004;42.624;23.386;2022-09-12T01:05:24;93967.75;;;15.50;100.00
7918;BME280;4004;42.624;23.386;2022-09-12T01:07:53;93962.31;;;15.43;100.00
7918;BME280;4004;42.624;23.386;2022-09-12T01:10:23;93955.00;;;15.32;100.00
7918;BME280;4004;42.624;23.386;2022-09-12T01:12:50;93961.19;;;15.33;100.00
7918;BME280;4004;42.624;23.386;2022-09-12T01:15:16;93948.81;;;15.28;100.00
7918;BME280;4004;42.624;23.386;2022-09-12T01:17:55;93949.19;;;15.30;100.00
7918;BME280;4004;42.624;23.386;2022-09-12T01:21:01;93940.31;;;15.30;100.00
7918;BME280;4004;42.624;23.386;2022-09-12T01:24:11;93943.00;;;15.30;100.00
7918;BME280;4004;42.624;23.386;2022-09-12T01:27:07;93944.16;;;15.18;100.00
7918;BME280;4004;42.624;23.386;2022-09-12T01:32:46;93946.91;;;15.04;100.00
7918;BME280;4004;42.624;23.386;2022-09-12T01:35:21;93947.28;;;15.06;100.00
7918;BME280;4004;42.624;23.386;2022-09-12T01:38:00;93953.06;;;14.93;100.00
7918;BME280;4004;42.624;23.386;2022-09-12T01:40:39;93948.06;;;14.81;100.00
7918;BME280;4004;42.624;23.386;2022-09-12T01:43:13;93949.22;;;14.77;100.00
7918;BME280;4004;42.624;23.386;2022-09-12T01:45:46;93941.84;;;14.74;100.00
7918;BME280;4004;42.624;23.386;2022-09-12T01:48:21;93939.53;;;14.76;100.00
7918;BME280;4004;42.624;23.386;2022-09-12T01:50:53;93944.94;;;14.76;100.00
7918;BME280;4004;42.624;23.386;2022-09-12T01:53:25;93941.84;;;14.66;100.00
7918;BME280;4004;42.624;23.386;2022-09-12T01:55:55;93946.91;;;14.68;100.00
7918;BME280;4004;42.624;23.386;2022-09-12T01:58:26;93932.59;;;14.67;100.00
7918;BME280;4004;42.624;23.386;2022-09-12T02:00:59;93941.06;;;14.69;100.00
7918;BME280;4004;42.624;23.386;2022-09-12T02:03:31;93931.41;;;14.65;100.00
7918;BME280;4004;42.624;23.386;2022-09-12T02:06:03;93941.09;;;14.66;100.00
7918;BME280;4004;42.624;23.386;2022-09-12T02:08:34;93942.63;;;14.70;100.00
7918;BME280;4004;42.624;23.386;2022-09-12T02:11:07;93927.56;;;14.62;100.00
7918;BME280;4004;42.624;23.386;2022-09-12T02:13:37;93929.50;;;14.62;100.00
7918;BME280;4004;42.624;23.386;2022-09-12T02:16:08;93932.91;;;14.51;100.00
7918;BME280;4004;42.624;23.386;2022-09-12T02:18:38;93942.19;;;14.50;100.00
7918;BME280;4004;42.624;23.386;2022-09-12T02:21:06;93940.25;;;14.51;100.00
7918;BME280;4004;42.624;23.386;2022-09-12T02:23:37;93947.28;;;14.59;100.00
7918;BME280;4004;42.624;23.386;2022-09-12T02:26:09;93948.81;;;14.71;100.00
7918;BME280;4004;42.624;23.386;2022-09-12T02:28:40;93952.28;;;14.64;100.00
7918;BME280;4004;42.624;23.386;2022-09-12T02:31:13;93949.22;;;14.59;100.00
7918;BME280;4004;42.624;23.386;2022-09-12T02:33:48;93952.63;;;14.48;100.00
7918;BME280;4004;42.624;23.386;2022-09-12T02:36:27;93948.78;;;14.53;100.00
7918;BME280;4004;42.624;23.386;2022-09-12T02:38:57;93946.03;;;14.49;100.00
7918;BME280;4004;42.624;23.386;2022-09-12T02:41:24;93958.78;;;14.42;100.00
7918;BME280;4004;42.624;23.386;2022-09-12T02:43:52;93956.09;;;14.35;100.00
7918;BME280;4004;42.624;23.386;2022-09-12T02:46:21;93959.94;;;14.37;100.00
7918;BME280;4004;42.624;23.386;2022-09-12T02:48:52;93952.59;;;14.34;100.00
7918;BME280;4004;42.624;23.386;2022-09-12T02:51:20;93961.47;;;14.31;100.00
7918;BME280;4004;42.624;23.386;2022-09-12T02:53:47;93954.91;;;14.32;100.00
7918;BME280;4004;42.624;23.386;2022-09-12T02:56:18;93953.75;;;14.33;100.00
7918;BME280;4004;42.624;23.386;2022-09-12T02:58:47;93954.50;;;14.34;100.00
7918;BME280;4004;42.624;23.386;2022-09-12T03:01:22;93958.41;;;14.43;100.00
7918;BME280;4004;42.624;23.386;2022-09-12T03:06:55;93964.63;;;14.58;100.00
7918;BME280;4004;42.624;23.386;2022-09-12T03:09:34;93961.16;;;14.58;100.00
7918;BME280;4004;42.624;23.386;2022-09-12T03:12:09;93971.63;;;14.74;100.00
7918;BME280;4004;42.624;23.386;2022-09-12T03:14:51;93982.09;;;14.86;100.00
7918;BME280;4004;42.624;23.386;2022-09-12T03:17:29;93982.47;;;14.91;100.00
7918;BME280;4004;42.624;23.386;2022-09-12T03:20:08;93972.44;;;14.92;100.00
7918;BME280;4004;42.624;23.386;2022-09-12T03:22:42;93971.63;;;14.77;100.00
7918;BME280;4004;42.624;23.386;2022-09-12T03:25:15;93966.94;;;14.56;100.00
7918;BME280;4004;42.624;23.386;2022-09-12T03:27:48;93969.31;;;14.61;100.00
7918;BME280;4004;42.624;23.386;2022-09-12T03:30:18;93979.34;;;14.57;100.00
7918;BME280;4004;42.624;23.386;2022-09-12T03:32:47;93973.09;;;14.49;100.00
7918;BME280;4004;42.624;23.386;2022-09-12T03:35:17;93975.44;;;14.51;100.00
7918;BME280;4004;42.624;23.386;2022-09-12T03:37:45;93970.44;;;14.60;100.00
7918;BME280;4004;42.624;23.386;2022-09-12T03:40:13;93962.34;;;14.57;100.00
7918;BME280;4004;42.624;23.386;2022-09-12T03:42:41;93970.47;;;14.67;100.00
7918;BME280;4004;42.624;23.386;2022-09-12T03:45:09;93968.53;;;14.64;100.00
7918;BME280;4004;42.624;23.386;2022-09-12T03:47:36;93962.31;;;14.60;100.00
7918;BME280;4004;42.624;23.386;2022-09-12T03:50:03;93971.63;;;14.70;100.00
7918;BME280;4004;42.624;23.386;2022-09-12T03:52:32;93972.00;;;14.61;100.00
7918;BME280;4004;42.624;23.386;2022-09-12T03:54:59;93963.50;;;14.63;100.00
7918;BME280;4004;42.624;23.386;2022-09-12T03:57:25;93971.22;;;14.64;100.00
7918;BME280;4004;42.624;23.386;2022-09-12T03:59:52;93963.88;;;14.58;100.00
7918;BME280;4004;42.624;23.386;2022-09-12T04:02:19;93970.06;;;14.62;100.00
7918;BME280;4004;42.624;23.386;2022-09-12T04:04:46;93968.47;;;14.50;100.00
7918;BME280;4004;42.624;23.386;2022-09-12T04:07:13;93964.97;;;14.35;100.00
7918;BME280;4004;42.624;23.386;2022-09-12T04:09:42;93978.47;;;14.31;100.00
7918;BME280;4004;42.624;23.386;2022-09-12T04:12:08;93976.94;;;14.34;100.00
7918;BME280;4004;42.624;23.386;2022-09-12T04:14:35;93978.09;;;14.40;100.00
7918;BME280;4004;42.624;23.386;2022-09-12T04:17:03;93982.78;;;14.54;100.00
7918;BME280;4004;42.624;23.386;2022-09-12T04:19:29;93979.38;;;14.89;100.00
7918;BME280;4004;42.624;23.386;2022-09-12T04:21:56;93980.16;;;15.22;100.00
7918;BME280;4004;42.624;23.386;2022-09-12T04:24:23;93977.03;;;15.49;100.00
7918;BME280;4004;42.624;23.386;2022-09-12T04:26:51;93982.38;;;15.85;100.00
7918;BME280;4004;42.624;23.386;2022-09-12T04:29:18;93986.13;;;16.27;100.00
7918;BME280;4004;42.624;23.386;2022-09-12T04:31:45;93992.84;;;16.82;94.82
7918;BME280;4004;42.624;23.386;2022-09-12T04:34:12;93992.88;;;17.30;92.45
7918;BME280;4004;42.624;23.386;2022-09-12T04:36:39;93989.66;;;17.88;87.55
7918;BME280;4004;42.624;23.386;2022-09-12T04:39:06;93997.91;;;18.11;84.02
7918;BME280;4004;42.624;23.386;2022-09-12T04:41:34;94004.03;;;18.84;80.63
7918;BME280;4004;42.624;23.386;2022-09-12T04:44:04;94011.00;;;19.39;75.78
7918;BME280;4004;42.624;23.386;2022-09-12T04:46:34;94006.53;;;19.96;72.29
7918;BME280;4004;42.624;23.386;2022-09-12T04:49:02;93993.19;;;20.42;68.30
7918;BME280;4004;42.624;23.386;2022-09-12T04:51:30;94006.88;;;21.15;63.36
7918;BME280;4004;42.624;23.386;2022-09-12T04:54:00;94002.63;;;21.92;58.86
7918;BME280;4004;42.624;23.386;2022-09-12T04:56:28;94023.16;;;22.46;56.06
7918;BME280;4004;42.624;23.386;2022-09-12T04:58:56;94016.97;;;22.71;54.67
7918;BME280;4004;42.624;23.386;2022-09-12T05:01:25;94021.03;;;22.92;53.39
7918;BME280;4004;42.624;23.386;2022-09-12T05:03:52;94012.84;;;23.17;52.54
7918;BME280;4004;42.624;23.386;2022-09-12T05:06:21;94012.34;;;22.68;52.33
7918;BME280;4004;42.624;23.386;2022-09-12T05:08:48;94011.53;;;22.42;53.86
7918;BME280;4004;42.624;23.386;2022-09-12T05:11:17;94006.91;;;22.39;54.01
7918;BME280;4004;42.624;23.386;2022-09-12T05:13:45;94009.94;;;22.28;54.12
7918;BME280;4004;42.624;23.386;2022-09-12T05:16:13;94001.53;;;22.35;54.25
7918;BME280;4004;42.624;23.386;2022-09-12T05:18:43;94003.81;;;22.37;53.97
7918;BME280;4004;42.624;23.386;2022-09-12T05:21:13;94016.38;;;22.50;53.69
7918;BME280;4004;42.624;23.386;2022-09-12T05:23:40;94002.06;;;22.30;53.60
7918;BME280;4004;42.624;23.386;2022-09-12T05:26:11;94009.84;;;22.31;54.21
7918;BME280;4004;42.624;23.386;2022-09-12T05:28:38;94006.13;;;22.38;53.93
7918;BME280;4004;42.624;23.386;2022-09-12T05:31:07;94012.56;;;22.31;53.77
7918;BME280;4004;42.624;23.386;2022-09-12T05:33:38;94000.97;;;22.11;54.13
7918;BME280;4004;42.624;23.386;2022-09-12T05:36:09;94001.53;;;21.89;53.76
7918;BME280;4004;42.624;23.386;2022-09-12T05:38:37;94000.53;;;21.83;54.42
7918;BME280;4004;42.624;23.386;2022-09-12T05:41:05;94000.34;;;22.20;54.04
7918;BME280;4004;42.624;23.386;2022-09-12T05:43:32;93994.38;;;22.25;52.66
7918;BME280;4004;42.624;23.386;2022-09-12T05:46:00;93996.41;;;22.21;53.27
7918;BME280;4004;42.624;23.386;2022-09-12T05:48:27;93995.13;;;22.25;52.95
7918;BME280;4004;42.624;23.386;2022-09-12T05:50:58;93987.59;;;22.29;52.56
7918;BME280;4004;42.624;23.386;2022-09-12T05:53:27;93987.88;;;22.48;52.08
7918;BME280;4004;42.624;23.386;2022-09-12T05:56:06;93991.72;;;22.63;51.20
7918;BME280;4004;42.624;23.386;2022-09-12T05:58:34;94002.19;;;22.81;50.12
7918;BME280;4004;42.624;23.386;2022-09-12T06:01:05;93987.63;;;23.10;49.60
7918;BME280;4004;42.624;23.386;2022-09-12T06:03:33;93986.19;;;23.05;49.42
7918;BME280;4004;42.624;23.386;2022-09-12T06:06:01;93972.91;;;22.91;49.57
7918;BME280;4004;42.624;23.386;2022-09-12T06:08:30;93990.44;;;22.81;49.76
7918;BME280;4004;42.624;23.386;2022-09-12T06:11:00;93973.09;;;22.71;50.03
7918;BME280;4004;42.624;23.386;2022-09-12T06:13:27;93978.38;;;22.91;49.91
7918;BME280;4004;42.624;23.386;2022-09-12T06:16:03;93981.81;;;23.21;49.31
7918;BME280;4004;42.624;23.386;2022-09-12T06:18:31;93985.72;;;23.58;48.56
7918;BME280;4004;42.624;23.386;2022-09-12T06:21:01;93973.22;;;23.57;47.57
7918;BME280;4004;42.624;23.386;2022-09-12T06:23:30;93979.81;;;23.34;47.58
7918;BME280;4004;42.624;23.386;2022-09-12T06:25:58;93968.19;;;23.30;48.39
7918;BME280;4004;42.624;23.386;2022-09-12T06:28:25;93967.41;;;23.90;47.06
7918;BME280;4004;42.624;23.386;2022-09-12T06:30:52;93986.88;;;24.17;46.55
7918;BME280;4004;42.624;23.386;2022-09-12T06:33:19;93984.38;;;24.54;45.33
7918;BME280;4004;42.624;23.386;2022-09-12T06:35:46;93992.25;;;24.65;44.26
7918;BME280;4004;42.624;23.386;2022-09-12T06:38:13;93981.09;;;24.03;45.19
7918;BME280;4004;42.624;23.386;2022-09-12T06:40:42;94004.28;;;24.02;45.36
7918;BME280;4004;42.624;23.386;2022-09-12T06:43:11;94005.16;;;23.98;45.74
7918;BME280;4004;42.624;23.386;2022-09-12T06:45:39;93999.59;;;24.24;45.53
7918;BME280;4004;42.624;23.386;2022-09-12T06:48:06;93995.88;;;24.40;45.19
7918;BME280;4004;42.624;23.386;2022-09-12T06:50:33;93996.84;;;24.46;45.21
7918;BME280;4004;42.624;23.386;2022-09-12T06:52:59;94005.19;;;24.20;44.84
7918;BME280;4004;42.624;23.386;2022-09-12T06:55:26;93976.09;;;23.88;45.04
7918;BME280;4004;42.624;23.386;2022-09-12T06:57:55;94010.66;;;23.98;45.55
7918;BME280;4004;42.624;23.386;2022-09-12T07:00:22;94005.81;;;24.03;45.95
7918;BME280;4004;42.624;23.386;2022-09-12T07:02:52;94010.50;;;23.80;46.77
7918;BME280;4004;42.624;23.386;2022-09-12T07:05:19;94021.38;;;23.58;47.71
7918;BME280;4004;42.624;23.386;2022-09-12T07:07:46;93995.41;;;23.24;47.95
7918;BME280;4004;42.624;23.386;2022-09-12T07:10:13;94026.09;;;23.57;48.21
7918;BME280;4004;42.624;23.386;2022-09-12T07:12:40;94028.22;;;24.01;47.16
7918;BME280;4004;42.624;23.386;2022-09-12T07:15:09;94021.53;;;24.02;46.20
7918;BME280;4004;42.624;23.386;2022-09-12T07:17:36;94029.44;;;24.35;46.21
7918;BME280;4004;42.624;23.386;2022-09-12T07:20:03;94023.97;;;24.57;45.45
7918;BME280;4004;42.624;23.386;2022-09-12T07:22:30;94020.72;;;24.36;45.18
7918;BME280;4004;42.624;23.386;2022-09-12T07:24:57;94005.22;;;23.73;46.58
7918;BME280;4004;42.624;23.386;2022-09-12T07:27:23;94029.47;;;23.74;47.04
7918;BME280;4004;42.624;23.386;2022-09-12T07:29:50;94034.78;;;23.43;47.86
7918;BME280;4004;42.624;23.386;2022-09-12T07:32:18;94033.72;;;23.28;47.76
7918;BME280;4004;42.624;23.386;2022-09-12T07:34:45;94035.66;;;23.27;47.68
7918;BME280;4004;42.624;23.386;2022-09-12T07:37:12;94039.84;;;23.45;46.80
7918;BME280;4004;42.624;23.386;2022-09-12T07:39:38;94038.31;;;23.18;46.33
7918;BME280;4004;42.624;23.386;2022-09-12T07:42:05;94023.25;;;22.97;46.86
7918;BME280;4004;42.624;23.386;2022-09-12T07:44:32;94030.63;;;23.13;46.85
7918;BME280;4004;42.624;23.386;2022-09-12T07:46:59;94028.31;;;23.11;47.06
7918;BME280;4004;42.624;23.386;2022-09-12T07:49:27;94028.91;;;22.90;46.86
7918;BME280;4004;42.624;23.386;2022-09-12T07:51:55;94018.47;;;22.72;47.16
7918;BME280;4004;42.624;23.386;2022-09-12T07:54:22;94018.59;;;22.68;47.83
7918;BME280;4004;42.624;23.386;2022-09-12T07:56:49;94025.75;;;22.91;47.10
7918;BME280;4004;42.624;23.386;2022-09-12T07:59:16;94028.69;;;22.71;47.29
7918;BME280;4004;42.624;23.386;2022-09-12T08:01:43;94022.94;;;22.53;47.25
7918;BME280;4004;42.624;23.386;2022-09-12T08:04:09;94025.78;;;22.49;47.98
7918;BME280;4004;42.624;23.386;2022-09-12T08:06:38;94027.66;;;22.52;47.49
7918;BME280;4004;42.624;23.386;2022-09-12T08:09:05;94030.81;;;22.51;47.53
7918;BME280;4004;42.624;23.386;2022-09-12T08:11:32;94034.38;;;22.64;47.78
7918;BME280;4004;42.624;23.386;2022-09-12T08:13:59;94035.03;;;22.68;46.71
7918;BME280;4004;42.624;23.386;2022-09-12T08:16:28;94021.59;;;22.45;46.67
7918;BME280;4004;42.624;23.386;2022-09-12T08:18:56;94037.88;;;22.65;46.69
7918;BME280;4004;42.624;23.386;2022-09-12T08:21:25;94041.97;;;22.86;46.46
7918;BME280;4004;42.624;23.386;2022-09-12T08:23:54;94035.88;;;23.07;46.24
7918;BME280;4004;42.624;23.386;2022-09-12T08:26:21;94041.94;;;23.28;45.64
7918;BME280;4004;42.624;23.386;2022-09-12T08:28:48;94037.97;;;23.54;45.39
7918;BME280;4004;42.624;23.386;2022-09-12T08:31:17;94043.00;;;23.69;44.91
7918;BME280;4004;42.624;23.386;2022-09-12T08:33:44;94035.53;;;23.82;44.58
7918;BME280;4004;42.624;23.386;2022-09-12T08:36:12;94033.44;;;23.73;44.51
7918;BME280;4004;42.624;23.386;2022-09-12T08:38:41;94011.16;;;23.71;44.11
7918;BME280;4004;42.624;23.386;2022-09-12T08:41:13;94020.94;;;23.72;44.12
7918;BME280;4004;42.624;23.386;2022-09-12T08:47:00;94029.16;;;22.95;46.14
7918;BME280;4004;42.624;23.386;2022-09-12T08:49:33;94028.34;;;22.69;47.03
7918;BME280;4004;42.624;23.386;2022-09-12T08:52:04;94025.09;;;22.32;47.86
7918;BME280;4004;42.624;23.386;2022-09-12T08:54:32;94024.19;;;22.35;47.87
7918;BME280;4004;42.624;23.386;2022-09-12T08:57:03;94033.81;;;22.27;48.27
7918;BME280;4004;42.624;23.386;2022-09-12T08:59:33;94021.41;;;22.23;47.82
7918;BME280;4004;42.624;23.386;2022-09-12T09:02:01;94021.66;;;22.12;47.97
7918;BME280;4004;42.624;23.386;2022-09-12T09:04:38;94022.44;;;22.29;48.40
7918;BME280;4004;42.624;23.386;2022-09-12T09:07:28;94008.25;;;22.47;48.05
7918;BME280;4004;42.624;23.386;2022-09-12T09:10:05;94014.09;;;22.62;47.60
7918;BME280;4004;42.624;23.386;2022-09-12T09:12:40;94012.66;;;22.57;47.14
7918;BME280;4004;42.624;23.386;2022-09-12T09:15:20;94013.53;;;22.25;47.61
7918;BME280;4004;42.624;23.386;2022-09-12T09:17:53;93995.38;;;21.85;48.37
7918;BME280;4004;42.624;23.386;2022-09-12T09:20:26;93992.25;;;21.70;49.08
7918;BME280;4004;42.624;23.386;2022-09-12T09:22:56;93998.34;;;21.62;49.58
7918;BME280;4004;42.624;23.386;2022-09-12T09:25:41;93988.88;;;21.50;49.67
7918;BME280;4004;42.624;23.386;2022-09-12T09:28:16;94001.53;;;21.44;49.31
7918;BME280;4004;42.624;23.386;2022-09-12T09:30:45;93985.84;;;21.11;50.00
7918;BME280;4004;42.624;23.386;2022-09-12T09:33:20;93988.56;;;20.95;50.07
7918;BME280;4004;42.624;23.386;2022-09-12T09:35:53;93994.25;;;20.84;51.26
7918;BME280;4004;42.624;23.386;2022-09-12T09:38:32;93997.41;;;20.83;51.46
7918;BME280;4004;42.624;23.386;2022-09-12T09:41:17;93991.59;;;20.81;52.15
7918;BME280;4004;42.624;23.386;2022-09-12T09:43:49;93982.94;;;21.02;51.54
7918;BME280;4004;42.624;23.386;2022-09-12T09:46:16;93967.72;;;21.18;50.86
7918;BME280;4004;42.624;23.386;2022-09-12T09:48:44;93979.34;;;21.22;50.91
7918;BME280;4004;42.624;23.386;2022-09-12T09:51:14;93975.06;;;21.04;50.95
7918;BME280;4004;42.624;23.386;2022-09-12T09:53:46;93972.56;;;20.77;51.38
7918;BME280;4004;42.624;23.386;2022-09-12T09:56:26;93980.91;;;20.70;51.83
7918;BME280;4004;42.624;23.386;2022-09-12T09:58:55;93979.09;;;21.00;51.69
7918;BME280;4004;42.624;23.386;2022-09-12T10:01:22;93970.28;;;21.25;51.25
7918;BME280;4004;42.624;23.386;2022-09-12T10:03:51;93974.41;;;21.17;50.32
7918;BME280;4004;42.624;23.386;2022-09-12T10:06:24;93965.59;;;20.93;50.99
7918;BME280;4004;42.624;23.386;2022-09-12T10:09:06;93976.25;;;20.87;51.32
7918;BME280;4004;42.624;23.386;2022-09-12T10:11:42;93972.22;;;20.91;51.01
7918;BME280;4004;42.624;23.386;2022-09-12T10:14:28;93973.91;;;20.69;50.43
7918;BME280;4004;42.624;23.386;2022-09-12T10:16:55;93975.34;;;20.57;51.17
7918;BME280;4004;42.624;23.386;2022-09-12T10:19:32;93976.78;;;20.42;52.25
7918;BME280;4004;42.624;23.386;2022-09-12T10:22:00;93968.94;;;20.44;51.89
7918;BME280;4004;42.624;23.386;2022-09-12T10:24:32;93971.84;;;20.37;51.83
7918;BME280;4004;42.624;23.386;2022-09-12T10:27:07;93965.72;;;20.49;51.20
7918;BME280;4004;42.624;23.386;2022-09-12T10:29:40;93971.16;;;20.69;50.79
7918;BME280;4004;42.624;23.386;2022-09-12T10:32:14;93966.91;;;20.68;51.48
7918;BME280;4004;42.624;23.386;2022-09-12T10:34:46;93986.63;;;20.76;51.46
7918;BME280;4004;42.624;23.386;2022-09-12T10:37:18;93977.25;;;20.77;52.88
7918;BME280;4004;42.624;23.386;2022-09-12T10:39:50;93977.44;;;20.86;51.04
7918;BME280;4004;42.624;23.386;2022-09-12T10:42:46;93980.00;;;20.93;50.63
7918;BME280;4004;42.624;23.386;2022-09-12T10:45:20;93977.16;;;21.17;50.63
7918;BME280;4004;42.624;23.386;2022-09-12T10:47:49;93969.78;;;21.14;50.38
7918;BME280;4004;42.624;23.386;2022-09-12T10:50:24;93980.81;;;21.26;50.30
7918;BME280;4004;42.624;23.386;2022-09-12T10:52:52;93975.44;;;21.39;51.08
7918;BME280;4004;42.624;23.386;2022-09-12T10:55:26;93961.06;;;21.35;50.90
7918;BME280;4004;42.624;23.386;2022-09-12T10:58:20;93977.13;;;21.33;49.86
7918;BME280;4004;42.624;23.386;2022-09-12T11:00:55;93976.59;;;21.38;48.81
7918;BME280;4004;42.624;23.386;2022-09-12T11:03:35;93965.59;;;21.25;48.73
7918;BME280;4004;42.624;23.386;2022-09-12T11:06:14;93968.50;;;21.18;49.33
7918;BME280;4004;42.624;23.386;2022-09-12T11:08:51;93963.19;;;21.11;49.52
7918;BME280;4004;42.624;23.386;2022-09-12T11:11:38;93963.44;;;21.00;49.07
7918;BME280;4004;42.624;23.386;2022-09-12T11:17:18;93969.34;;;20.99;50.84
7918;BME280;4004;42.624;23.386;2022-09-12T11:20:13;93935.06;;;20.61;50.03
7918;BME280;4004;42.624;23.386;2022-09-12T11:23:10;93959.84;;;20.87;49.47
7918;BME280;4004;42.624;23.386;2022-09-12T11:25:45;93962.81;;;20.76;50.46
7918;BME280;4004;42.624;23.386;2022-09-12T11:28:27;93958.72;;;20.68;50.87
7918;BME280;4004;42.624;23.386;2022-09-12T11:31:15;93964.09;;;20.72;51.06
7918;BME280;4004;42.624;23.386;2022-09-12T11:33:49;93963.78;;;20.86;50.94
7918;BME280;4004;42.624;23.386;2022-09-12T11:36:28;93965.53;;;20.76;49.89
7918;BME280;4004;42.624;23.386;2022-09-12T11:39:02;93953.16;;;20.72;50.24
7918;BME280;4004;42.624;23.386;2022-09-12T11:41:35;93950.19;;;20.66;51.19
7918;BME280;4004;42.624;23.386;2022-09-12T11:44:11;93944.97;;;20.72;51.02
7918;BME280;4004;42.624;23.386;2022-09-12T11:46:41;93959.84;;;20.87;50.07
7918;BME280;4004;42.624;23.386;2022-09-12T11:49:20;93943.31;;;21.10;49.99
7918;BME280;4004;42.624;23.386;2022-09-12T11:51:52;93957.47;;;21.22;49.67
7918;BME280;4004;42.624;23.386;2022-09-12T11:54:26;93938.69;;;21.24;49.99
7918;BME280;4004;42.624;23.386;2022-09-12T11:57:01;93960.91;;;21.26;50.85
7918;BME280;4004;42.624;23.386;2022-09-12T11:59:32;93953.97;;;21.05;51.78
7918;BME280;4004;42.624;23.386;2022-09-12T12:02:01;93962.84;;;21.09;51.86
7918;BME280;4004;42.624;23.386;2022-09-12T12:04:36;93968.50;;;21.02;51.84
7918;BME280;4004;42.624;23.386;2022-09-12T12:07:05;93967.88;;;20.78;52.50
7918;BME280;4004;42.624;23.386;2022-09-12T12:09:33;93970.47;;;20.65;53.33
7918;BME280;4004;42.624;23.386;2022-09-12T12:12:04;93964.25;;;20.64;53.36
7918;BME280;4004;42.624;23.386;2022-09-12T12:14:39;93966.06;;;20.51;53.26
7918;BME280;4004;42.624;23.386;2022-09-12T12:17:14;93951.91;;;20.56;52.50
7918;BME280;4004;42.624;23.386;2022-09-12T12:19:44;93966.13;;;20.67;52.54
7918;BME280;4004;42.624;23.386;2022-09-12T12:22:17;93959.13;;;20.66;51.42
7918;BME280;4004;42.624;23.386;2022-09-12T12:27:53;93959.56;;;20.45;51.35
7918;BME280;4004;42.624;23.386;2022-09-12T12:33:51;93957.69;;;20.42;52.07
7918;BME280;4004;42.624;23.386;2022-09-12T12:36:31;93960.75;;;20.44;52.21
7918;BME280;4004;42.624;23.386;2022-09-12T12:38:58;93953.91;;;20.36;52.54
7918;BME280;4004;42.624;23.386;2022-09-12T12:41:45;93944.03;;;20.42;52.76
7918;BME280;4004;42.624;23.386;2022-09-12T12:44:47;93956.56;;;20.59;52.56
7918;BME280;4004;42.624;23.386;2022-09-12T12:47:16;93958.53;;;20.59;51.91
7918;BME280;4004;42.624;23.386;2022-09-12T12:49:49;93938.97;;;20.40;52.21
7918;BME280;4004;42.624;23.386;2022-09-12T12:52:18;93965.81;;;20.25;52.48
7918;BME280;4004;42.624;23.386;2022-09-12T12:54:51;93951.47;;;20.41;52.22
7918;BME280;4004;42.624;23.386;2022-09-12T12:57:45;93954.41;;;20.31;52.57
7918;BME280;4004;42.624;23.386;2022-09-12T13:00:30;93953.06;;;20.39;52.89
7918;BME280;4004;42.624;23.386;2022-09-12T13:03:08;93954.72;;;20.53;52.73
7918;BME280;4004;42.624;23.386;2022-09-12T13:05:41;93949.16;;;20.76;52.26
7918;BME280;4004;42.624;23.386;2022-09-12T13:08:25;93948.66;;;20.81;52.45
7918;BME280;4004;42.624;23.386;2022-09-12T13:10:58;93964.72;;;20.96;51.72
7918;BME280;4004;42.624;23.386;2022-09-12T13:13:30;93961.41;;;21.04;50.51
7918;BME280;4004;42.624;23.386;2022-09-12T13:15:57;93966.44;;;21.06;50.59
7918;BME280;4004;42.624;23.386;2022-09-12T13:18:26;93959.72;;;21.10;50.19
7918;BME280;4004;42.624;23.386;2022-09-12T13:20:59;93954.38;;;20.87;50.99
7918;BME280;4004;42.624;23.386;2022-09-12T13:23:31;93965.06;;;20.81;51.20
7918;BME280;4004;42.624;23.386;2022-09-12T13:26:00;93971.34;;;20.78;50.76
7918;BME280;4004;42.624;23.386;2022-09-12T13:28:28;93959.94;;;20.83;50.92
7918;BME280;4004;42.624;23.386;2022-09-12T13:30:58;93953.97;;;20.88;51.00
7918;BME280;4004;42.624;23.386;2022-09-12T13:33:35;93958.22;;;20.89;51.14
7918;BME280;4004;42.624;23.386;2022-09-12T13:39:18;93966.41;;;20.73;51.51
7918;BME280;4004;42.624;23.386;2022-09-12T13:42:01;93953.63;;;20.50;51.75
7918;BME280;4004;42.624;23.386;2022-09-12T13:44:37;93942.47;;;20.41;52.55
7918;BME280;4004;42.624;23.386;2022-09-12T13:47:11;93956.97;;;20.38;53.22
7918;BME280;4004;42.624;23.386;2022-09-12T13:49:40;93964.06;;;20.35;53.94
7918;BME280;4004;42.624;23.386;2022-09-12T13:52:14;93949.56;;;20.58;53.76